Terminal Aerodrome Forecast
Issued by NWS Buffalo, NY

Home | Current Version | Previous Version | Text Only | Print | Product List | Glossary On
Versions: 1 2 3 4 5 6 7 8 9 10 11 12 13 14 15 16 17 18 19 20 21 22 23 24 25 26 27 28
000
FTUS41 KBUF 281122 RRA
TAFART
TAF
KART 281122Z 2811/2912 00000KT 1 1/2SM BR VCSH BKN030
     FM281400 VRB03KT 2SM BR VCSH OVC007
     FM281700 35004KT P6SM OVC007
     FM282000 01005KT P6SM OVC012=

USA.gov is the U.S. government's official web portal to all federal, state and local government web resources and services.